Terminal Aerodrome Forecast
Issued by NWS

Home | Current Version | Previous Version | Text Only | Print | Product List | Glossary On
Versions: 1 2 3 4 5 6 7 8 9 10 11 12
000
FTUS46 KLOX 250500
TAFSBA
TAF
KSBA 250525Z 2506/2606 VRB03KT P6SM SCT200
     FM251200 VRB03KT 5SM BR OVC007
     FM251600 17006KT P6SM SCT010 BKN150
     FM252000 25008KT P6SM BKN150
     FM260300 VRB03KT P6SM BKN150=

USA.gov is the U.S. government's official web portal to all federal, state and local government web resources and services.